sensor_id;sensor_type;location;lat;lon;timestamp;temperature;humidity
51837;DHT22;38941;53.254;6.600;2022-12-18T00:00:49;-2.20;99.90
51837;DHT22;38941;53.254;6.600;2022-12-18T00:03:00;-3.60;99.90
51837;DHT22;38941;53.254;6.600;2022-12-18T00:05:08;-3.60;99.90
51837;DHT22;38941;53.254;6.600;2022-12-18T00:07:18;-3.70;99.90
51837;DHT22;38941;53.254;6.600;2022-12-18T00:09:30;-3.50;99.90
51837;DHT22;38941;53.254;6.600;2022-12-18T00:11:40;-4.40;99.90
51837;DHT22;38941;53.254;6.600;2022-12-18T00:13:44;-3.60;99.90
51837;DHT22;38941;53.254;6.600;2022-12-18T00:15:51;-4.30;99.90
51837;DHT22;38941;53.254;6.600;2022-12-18T00:18:12;-3.70;99.90
51837;DHT22;38941;53.254;6.600;2022-12-18T00:20:21;-3.60;99.90
51837;DHT22;38941;53.254;6.600;2022-12-18T00:22:45;-3.60;99.90
51837;DHT22;38941;53.254;6.600;2022-12-18T00:24:53;-3.50;99.90
51837;DHT22;38941;53.254;6.600;2022-12-18T00:26:55;-3.60;99.90
51837;DHT22;38941;53.254;6.600;2022-12-18T00:29:10;-3.70;99.90
51837;DHT22;38941;53.254;6.600;2022-12-18T00:31:22;-4.90;99.90
51837;DHT22;38941;53.254;6.600;2022-12-18T00:33:33;-2.10;99.90
51837;DHT22;38941;53.254;6.600;2022-12-18T00:35:37;-3.80;99.90
51837;DHT22;38941;53.254;6.600;2022-12-18T00:37:40;-3.70;99.90
51837;DHT22;38941;53.254;6.600;2022-12-18T00:39:49;-3.80;99.90
51837;DHT22;38941;53.254;6.600;2022-12-18T00:41:54;-3.60;99.90
51837;DHT22;38941;53.254;6.600;2022-12-18T00:44:18;-2.70;99.90
51837;DHT22;38941;53.254;6.600;2022-12-18T00:46:31;-3.80;99.90
51837;DHT22;38941;53.254;6.600;2022-12-18T00:48:41;-3.70;99.90
51837;DHT22;38941;53.254;6.600;2022-12-18T00:50:50;-3.70;99.90
51837;DHT22;38941;53.254;6.600;2022-12-18T00:52:55;-3.70;99.90
51837;DHT22;38941;53.254;6.600;2022-12-18T00:55:02;-3.70;99.90
51837;DHT22;38941;53.254;6.600;2022-12-18T00:57:10;-4.60;99.90
51837;DHT22;38941;53.254;6.600;2022-12-18T00:59:18;-4.60;99.90
51837;DHT22;38941;53.254;6.600;2022-12-18T01:01:30;-3.80;99.90
51837;DHT22;38941;53.254;6.600;2022-12-18T01:03:35;-3.70;99.90
51837;DHT22;38941;53.254;6.600;2022-12-18T01:05:40;-3.90;99.90
51837;DHT22;38941;53.254;6.600;2022-12-18T01:07:44;-3.80;99.90
51837;DHT22;38941;53.254;6.600;2022-12-18T01:09:48;-5.00;99.90
51837;DHT22;38941;53.254;6.600;2022-12-18T01:11:53;-3.90;99.90
51837;DHT22;38941;53.254;6.600;2022-12-18T01:13:59;-3.90;99.90
51837;DHT22;38941;53.254;6.600;2022-12-18T01:16:11;-3.30;99.90
51837;DHT22;38941;53.254;6.600;2022-12-18T01:18:13;-3.90;99.90
51837;DHT22;38941;53.254;6.600;2022-12-18T01:20:23;-4.10;99.90
51837;DHT22;38941;53.254;6.600;2022-12-18T01:22:27;-4.10;99.90
51837;DHT22;38941;53.254;6.600;2022-12-18T01:24:36;-4.00;99.90
51837;DHT22;38941;53.254;6.600;2022-12-18T01:26:45;-3.90;99.90
51837;DHT22;38941;53.254;6.600;2022-12-18T01:28:58;-3.90;99.90
51837;DHT22;38941;53.254;6.600;2022-12-18T01:31:21;-3.90;99.90
51837;DHT22;38941;53.254;6.600;2022-12-18T01:33:27;-4.10;99.90
51837;DHT22;38941;53.254;6.600;2022-12-18T01:35:44;-4.00;99.90
51837;DHT22;38941;53.254;6.600;2022-12-18T01:37:53;-4.00;99.90
51837;DHT22;38941;53.254;6.600;2022-12-18T01:40:02;-4.80;99.90
51837;DHT22;38941;53.254;6.600;2022-12-18T01:42:20;-3.10;99.90
51837;DHT22;38941;53.254;6.600;2022-12-18T01:44:57;-3.10;99.90
51837;DHT22;38941;53.254;6.600;2022-12-18T01:46:59;-4.20;99.90
51837;DHT22;38941;53.254;6.600;2022-12-18T01:49:08;-2.90;99.90
51837;DHT22;38941;53.254;6.600;2022-12-18T01:51:18;-4.10;99.90
51837;DHT22;38941;53.254;6.600;2022-12-18T01:53:30;-3.50;99.90
51837;DHT22;38941;53.254;6.600;2022-12-18T01:55:37;-4.00;99.90
51837;DHT22;38941;53.254;6.600;2022-12-18T01:57:44;-3.60;99.90
51837;DHT22;38941;53.254;6.600;2022-12-18T01:59:52;-4.10;99.90
51837;DHT22;38941;53.254;6.600;2022-12-18T02:01:57;-4.10;99.90
51837;DHT22;38941;53.254;6.600;2022-12-18T02:04:34;-4.20;99.90
51837;DHT22;38941;53.254;6.600;2022-12-18T02:06:41;-4.20;99.90
51837;DHT22;38941;53.254;6.600;2022-12-18T02:09:04;-4.30;99.90
51837;DHT22;38941;53.254;6.600;2022-12-18T02:14:04;-4.10;99.90
51837;DHT22;38941;53.254;6.600;2022-12-18T02:18:35;-4.30;99.90
51837;DHT22;38941;53.254;6.600;2022-12-18T02:20:48;-4.20;99.90
51837;DHT22;38941;53.254;6.600;2022-12-18T02:27:46;-4.30;99.90
51837;DHT22;38941;53.254;6.600;2022-12-18T02:29:54;-3.60;99.90
51837;DHT22;38941;53.254;6.600;2022-12-18T02:32:07;-5.80;99.90
51837;DHT22;38941;53.254;6.600;2022-12-18T02:34:13;-4.50;99.90
51837;DHT22;38941;53.254;6.600;2022-12-18T02:36:17;-4.50;99.90
51837;DHT22;38941;53.254;6.600;2022-12-18T02:38:21;-3.90;99.90
51837;DHT22;38941;53.254;6.600;2022-12-18T02:40:31;-2.90;99.90
51837;DHT22;38941;53.254;6.600;2022-12-18T02:42:33;-4.60;99.90
51837;DHT22;38941;53.254;6.600;2022-12-18T02:44:45;-4.60;99.90
51837;DHT22;38941;53.254;6.600;2022-12-18T02:46:51;-4.50;99.90
51837;DHT22;38941;53.254;6.600;2022-12-18T02:51:29;-5.70;99.90
51837;DHT22;38941;53.254;6.600;2022-12-18T02:54:06;-3.80;99.90
51837;DHT22;38941;53.254;6.600;2022-12-18T02:56:17;-4.70;99.90
51837;DHT22;38941;53.254;6.600;2022-12-18T03:00:48;-4.70;99.90
51837;DHT22;38941;53.254;6.600;2022-12-18T03:07:55;-6.10;99.90
51837;DHT22;38941;53.254;6.600;2022-12-18T03:10:07;-4.90;99.90
51837;DHT22;38941;53.254;6.600;2022-12-18T03:12:30;-4.90;99.90
51837;DHT22;38941;53.254;6.600;2022-12-18T03:14:39;-6.20;99.90
51837;DHT22;38941;53.254;6.600;2022-12-18T03:16:53;-5.00;99.90
51837;DHT22;38941;53.254;6.600;2022-12-18T03:19:07;-5.00;99.90
51837;DHT22;38941;53.254;6.600;2022-12-18T03:21:17;-4.50;99.90
51837;DHT22;38941;53.254;6.600;2022-12-18T03:23:29;-6.00;99.90
51837;DHT22;38941;53.254;6.600;2022-12-18T03:25:34;-4.90;99.90
51837;DHT22;38941;53.254;6.600;2022-12-18T03:27:49;-5.10;99.90
51837;DHT22;38941;53.254;6.600;2022-12-18T03:30:05;-4.80;99.90
51837;DHT22;38941;53.254;6.600;2022-12-18T03:32:23;-5.00;99.90
51837;DHT22;38941;53.254;6.600;2022-12-18T03:34:33;-4.70;99.90
51837;DHT22;38941;53.254;6.600;2022-12-18T03:36:37;-5.00;99.90
51837;DHT22;38941;53.254;6.600;2022-12-18T03:38:41;-5.00;99.90
51837;DHT22;38941;53.254;6.600;2022-12-18T03:41:01;-5.70;99.90
51837;DHT22;38941;53.254;6.600;2022-12-18T03:43:24;-5.00;99.90
51837;DHT22;38941;53.254;6.600;2022-12-18T03:46:14;-4.90;99.90
51837;DHT22;38941;53.254;6.600;2022-12-18T03:48:50;-5.00;99.90
51837;DHT22;38941;53.254;6.600;2022-12-18T03:51:15;-4.90;99.90
51837;DHT22;38941;53.254;6.600;2022-12-18T03:53:37;-5.00;99.90
51837;DHT22;38941;53.254;6.600;2022-12-18T03:55:44;-5.10;99.90
51837;DHT22;38941;53.254;6.600;2022-12-18T03:57:50;-5.10;99.90
51837;DHT22;38941;53.254;6.600;2022-12-18T04:00:03;-5.10;99.90
51837;DHT22;38941;53.254;6.600;2022-12-18T04:02:31;-5.00;99.90
51837;DHT22;38941;53.254;6.600;2022-12-18T04:04:58;-5.20;99.90
51837;DHT22;38941;53.254;6.600;2022-12-18T04:07:04;-5.00;99.90
51837;DHT22;38941;53.254;6.600;2022-12-18T04:09:17;-5.20;99.90
51837;DHT22;38941;53.254;6.600;2022-12-18T04:11:24;-5.20;99.90
51837;DHT22;38941;53.254;6.600;2022-12-18T04:13:39;-5.00;99.90
51837;DHT22;38941;53.254;6.600;2022-12-18T04:15:53;-5.20;99.90
51837;DHT22;38941;53.254;6.600;2022-12-18T04:18:10;-5.20;99.90
51837;DHT22;38941;53.254;6.600;2022-12-18T04:20:16;-5.20;99.90
51837;DHT22;38941;53.254;6.600;2022-12-18T04:22:26;-4.90;99.90
51837;DHT22;38941;53.254;6.600;2022-12-18T04:24:34;-5.30;99.90
51837;DHT22;38941;53.254;6.600;2022-12-18T04:26:43;-5.10;99.90
51837;DHT22;38941;53.254;6.600;2022-12-18T04:28:45;-5.60;99.90
51837;DHT22;38941;53.254;6.600;2022-12-18T04:30:51;-4.70;99.90
51837;DHT22;38941;53.254;6.600;2022-12-18T04:32:53;-5.20;99.90
51837;DHT22;38941;53.254;6.600;2022-12-18T04:34:57;-5.10;99.90
51837;DHT22;38941;53.254;6.600;2022-12-18T04:37:00;-6.40;99.90
51837;DHT22;38941;53.254;6.600;2022-12-18T04:39:08;-6.20;99.90
51837;DHT22;38941;53.254;6.600;2022-12-18T04:41:14;-5.30;99.90
51837;DHT22;38941;53.254;6.600;2022-12-18T04:43:24;-5.30;99.90
51837;DHT22;38941;53.254;6.600;2022-12-18T04:45:27;-6.10;99.90
51837;DHT22;38941;53.254;6.600;2022-12-18T04:47:31;-5.30;99.90
51837;DHT22;38941;53.254;6.600;2022-12-18T04:49:43;-5.40;99.90
51837;DHT22;38941;53.254;6.600;2022-12-18T04:51:47;-5.50;99.90
51837;DHT22;38941;53.254;6.600;2022-12-18T04:53:58;-4.90;99.90
51837;DHT22;38941;53.254;6.600;2022-12-18T04:56:12;-5.30;99.90
51837;DHT22;38941;53.254;6.600;2022-12-18T04:58:16;-5.40;99.90
51837;DHT22;38941;53.254;6.600;2022-12-18T05:00:25;-5.30;99.90
51837;DHT22;38941;53.254;6.600;2022-12-18T05:02:34;-5.30;99.90
51837;DHT22;38941;53.254;6.600;2022-12-18T05:04:37;-5.30;99.90
51837;DHT22;38941;53.254;6.600;2022-12-18T05:06:40;-6.00;99.90
51837;DHT22;38941;53.254;6.600;2022-12-18T05:08:50;-5.40;99.90
51837;DHT22;38941;53.254;6.600;2022-12-18T05:11:12;-4.90;99.90
51837;DHT22;38941;53.254;6.600;2022-12-18T05:13:16;-5.30;99.90
51837;DHT22;38941;53.254;6.600;2022-12-18T05:15:19;-5.80;99.90
51837;DHT22;38941;53.254;6.600;2022-12-18T05:17:28;-5.40;99.90
51837;DHT22;38941;53.254;6.600;2022-12-18T05:19:38;-5.40;99.90
51837;DHT22;38941;53.254;6.600;2022-12-18T05:21:42;-5.40;99.90
51837;DHT22;38941;53.254;6.600;2022-12-18T05:23:44;-5.40;99.90
51837;DHT22;38941;53.254;6.600;2022-12-18T05:26:01;-5.40;99.90
51837;DHT22;38941;53.254;6.600;2022-12-18T05:28:16;-5.30;99.90
51837;DHT22;38941;53.254;6.600;2022-12-18T05:30:20;-6.60;99.90
51837;DHT22;38941;53.254;6.600;2022-12-18T05:32:27;-5.50;99.90
51837;DHT22;38941;53.254;6.600;2022-12-18T05:34:41;-5.30;99.90
51837;DHT22;38941;53.254;6.600;2022-12-18T05:36:46;-5.50;99.90
51837;DHT22;38941;53.254;6.600;2022-12-18T05:38:56;-4.40;99.90
51837;DHT22;38941;53.254;6.600;2022-12-18T05:41:05;-5.60;99.90
51837;DHT22;38941;53.254;6.600;2022-12-18T05:43:08;-5.40;99.90
51837;DHT22;38941;53.254;6.600;2022-12-18T05:45:13;-5.40;99.90
51837;DHT22;38941;53.254;6.600;2022-12-18T05:47:22;-5.40;99.90
51837;DHT22;38941;53.254;6.600;2022-12-18T05:49:33;-5.60;99.90
51837;DHT22;38941;53.254;6.600;2022-12-18T05:51:36;-5.50;99.90
51837;DHT22;38941;53.254;6.600;2022-12-18T05:53:44;-6.10;99.90
51837;DHT22;38941;53.254;6.600;2022-12-18T05:55:50;-5.70;99.90
51837;DHT22;38941;53.254;6.600;2022-12-18T05:57:57;-5.50;99.90
51837;DHT22;38941;53.254;6.600;2022-12-18T06:00:04;-5.50;99.90
51837;DHT22;38941;53.254;6.600;2022-12-18T06:02:13;-5.40;99.90
51837;DHT22;38941;53.254;6.600;2022-12-18T06:04:21;-5.50;99.90
51837;DHT22;38941;53.254;6.600;2022-12-18T06:06:30;-6.50;99.90
51837;DHT22;38941;53.254;6.600;2022-12-18T06:08:35;-5.50;99.90
51837;DHT22;38941;53.254;6.600;2022-12-18T06:10:48;-5.60;99.90
51837;DHT22;38941;53.254;6.600;2022-12-18T06:12:57;-5.60;99.90
51837;DHT22;38941;53.254;6.600;2022-12-18T06:15:00;-4.20;99.90
51837;DHT22;38941;53.254;6.600;2022-12-18T06:17:11;-6.00;99.90
51837;DHT22;38941;53.254;6.600;2022-12-18T06:19:25;-5.80;99.90
51837;DHT22;38941;53.254;6.600;2022-12-18T06:21:35;-5.70;99.90
51837;DHT22;38941;53.254;6.600;2022-12-18T06:23:40;-5.70;99.90
51837;DHT22;38941;53.254;6.600;2022-12-18T06:25:48;-5.70;99.90
51837;DHT22;38941;53.254;6.600;2022-12-18T06:27:59;-5.70;99.90
51837;DHT22;38941;53.254;6.600;2022-12-18T06:30:02;-5.80;99.90
51837;DHT22;38941;53.254;6.600;2022-12-18T06:32:14;-5.30;99.90
51837;DHT22;38941;53.254;6.600;2022-12-18T06:34:23;-5.70;99.90
51837;DHT22;38941;53.254;6.600;2022-12-18T06:36:37;-4.70;99.90
51837;DHT22;38941;53.254;6.600;2022-12-18T06:38:48;-6.30;99.90
51837;DHT22;38941;53.254;6.600;2022-12-18T06:40:51;-6.50;99.90
51837;DHT22;38941;53.254;6.600;2022-12-18T06:43:03;-6.90;99.90
51837;DHT22;38941;53.254;6.600;2022-12-18T06:45:11;-6.50;99.90
51837;DHT22;38941;53.254;6.600;2022-12-18T06:47:17;-4.50;99.90
51837;DHT22;38941;53.254;6.600;2022-12-18T06:49:34;-5.80;99.90
51837;DHT22;38941;53.254;6.600;2022-12-18T06:51:44;-5.80;99.90
51837;DHT22;38941;53.254;6.600;2022-12-18T06:53:50;-7.30;99.90
51837;DHT22;38941;53.254;6.600;2022-12-18T06:56:05;-6.80;99.90
51837;DHT22;38941;53.254;6.600;2022-12-18T06:58:15;-5.90;99.90
51837;DHT22;38941;53.254;6.600;2022-12-18T07:00:28;-5.90;99.90
51837;DHT22;38941;53.254;6.600;2022-12-18T07:02:41;-5.90;99.90
51837;DHT22;38941;53.254;6.600;2022-12-18T07:04:52;-5.90;99.90
51837;DHT22;38941;53.254;6.600;2022-12-18T07:07:02;-5.90;99.90
51837;DHT22;38941;53.254;6.600;2022-12-18T07:09:15;-5.80;99.90
51837;DHT22;38941;53.254;6.600;2022-12-18T07:11:26;-5.80;99.90
51837;DHT22;38941;53.254;6.600;2022-12-18T07:13:29;-6.30;99.90
51837;DHT22;38941;53.254;6.600;2022-12-18T07:15:32;-5.80;99.90
51837;DHT22;38941;53.254;6.600;2022-12-18T07:17:38;-6.00;99.90
51837;DHT22;38941;53.254;6.600;2022-12-18T07:19:47;-5.90;99.90
51837;DHT22;38941;53.254;6.600;2022-12-18T07:21:59;-5.80;99.90
51837;DHT22;38941;53.254;6.600;2022-12-18T07:26:10;-5.80;99.90
51837;DHT22;38941;53.254;6.600;2022-12-18T07:28:20;-6.90;99.90
51837;DHT22;38941;53.254;6.600;2022-12-18T07:30:23;-6.00;99.90
51837;DHT22;38941;53.254;6.600;2022-12-18T07:32:26;-5.80;99.90
51837;DHT22;38941;53.254;6.600;2022-12-18T07:34:32;-5.70;99.90
51837;DHT22;38941;53.254;6.600;2022-12-18T07:36:37;-7.30;99.90
51837;DHT22;38941;53.254;6.600;2022-12-18T07:38:48;-7.00;99.90
51837;DHT22;38941;53.254;6.600;2022-12-18T07:40:53;-7.20;99.90
51837;DHT22;38941;53.254;6.600;2022-12-18T07:43:03;-5.80;99.90
51837;DHT22;38941;53.254;6.600;2022-12-18T07:45:14;-5.70;99.90
51837;DHT22;38941;53.254;6.600;2022-12-18T07:47:21;-5.70;99.90
51837;DHT22;38941;53.254;6.600;2022-12-18T07:49:33;-6.50;99.90
51837;DHT22;38941;53.254;6.600;2022-12-18T07:51:42;-6.00;99.90
51837;DHT22;38941;53.254;6.600;2022-12-18T07:53:52;-5.80;99.90
51837;DHT22;38941;53.254;6.600;2022-12-18T07:56:00;-5.80;99.90
51837;DHT22;38941;53.254;6.600;2022-12-18T07:58:05;-4.60;99.90
51837;DHT22;38941;53.254;6.600;2022-12-18T08:00:07;-5.90;99.90
51837;DHT22;38941;53.254;6.600;2022-12-18T08:02:09;-5.60;99.90
51837;DHT22;38941;53.254;6.600;2022-12-18T08:04:18;-3.80;99.90
51837;DHT22;38941;53.254;6.600;2022-12-18T08:06:29;-5.80;99.90
51837;DHT22;38941;53.254;6.600;2022-12-18T08:08:34;-5.70;99.90
51837;DHT22;38941;53.254;6.600;2022-12-18T08:10:39;-5.60;99.90
51837;DHT22;38941;53.254;6.600;2022-12-18T08:12:42;-5.80;99.90
51837;DHT22;38941;53.254;6.600;2022-12-18T08:14:50;-5.80;99.90
51837;DHT22;38941;53.254;6.600;2022-12-18T08:16:54;-5.80;99.90
51837;DHT22;38941;53.254;6.600;2022-12-18T08:18:59;-5.80;99.90
51837;DHT22;38941;53.254;6.600;2022-12-18T08:21:21;-5.70;99.90
51837;DHT22;38941;53.254;6.600;2022-12-18T08:23:26;-5.80;99.90
51837;DHT22;38941;53.254;6.600;2022-12-18T08:25:30;-5.60;99.90
51837;DHT22;38941;53.254;6.600;2022-12-18T08:27:33;-5.70;99.90
51837;DHT22;38941;53.254;6.600;2022-12-18T08:29:43;-5.60;99.90
51837;DHT22;38941;53.254;6.600;2022-12-18T08:31:50;-5.10;99.90
51837;DHT22;38941;53.254;6.600;2022-12-18T08:33:54;-5.60;99.90
51837;DHT22;38941;53.254;6.600;2022-12-18T08:36:03;-6.90;99.90
51837;DHT22;38941;53.254;6.600;2022-12-18T08:38:19;-6.30;99.90
51837;DHT22;38941;53.254;6.600;2022-12-18T08:40:25;-5.40;99.90
51837;DHT22;38941;53.254;6.600;2022-12-18T08:42:29;-5.10;99.90
51837;DHT22;38941;53.254;6.600;2022-12-18T08:44:55;-5.90;99.90
51837;DHT22;38941;53.254;6.600;2022-12-18T08:46:58;-5.40;99.90
51837;DHT22;38941;53.254;6.600;2022-12-18T08:49:08;-5.40;99.90
51837;DHT22;38941;53.254;6.600;2022-12-18T08:51:17;-5.40;99.90
51837;DHT22;38941;53.254;6.600;2022-12-18T08:53:20;-5.20;99.90
51837;DHT22;38941;53.254;6.600;2022-12-18T08:55:32;-5.30;99.90
51837;DHT22;38941;53.254;6.600;2022-12-18T08:57:35;-4.80;99.90
51837;DHT22;38941;53.254;6.600;2022-12-18T08:59:40;-5.20;99.90
51837;DHT22;38941;53.254;6.600;2022-12-18T09:01:46;-5.00;99.90
51837;DHT22;38941;53.254;6.600;2022-12-18T09:03:51;-4.90;99.90
51837;DHT22;38941;53.254;6.600;2022-12-18T09:06:02;-5.50;99.90
51837;DHT22;38941;53.254;6.600;2022-12-18T09:08:11;-5.80;99.90
51837;DHT22;38941;53.254;6.600;2022-12-18T09:10:19;-5.50;99.90
51837;DHT22;38941;53.254;6.600;2022-12-18T09:12:21;-4.60;99.90
51837;DHT22;38941;53.254;6.600;2022-12-18T09:14:26;-4.30;99.90
51837;DHT22;38941;53.254;6.600;2022-12-18T09:16:31;-5.40;99.90
51837;DHT22;38941;53.254;6.600;2022-12-18T09:18:38;-3.50;99.90
51837;DHT22;38941;53.254;6.600;2022-12-18T09:20:47;-4.50;99.90
51837;DHT22;38941;53.254;6.600;2022-12-18T09:22:49;-3.30;99.90
51837;DHT22;38941;53.254;6.600;2022-12-18T09:24:55;-1.50;99.90
51837;DHT22;38941;53.254;6.600;2022-12-18T09:26:57;-4.40;99.90
51837;DHT22;38941;53.254;6.600;2022-12-18T09:29:02;-2.40;99.90
51837;DHT22;38941;53.254;6.600;2022-12-18T09:31:08;-3.10;99.90
51837;DHT22;38941;53.254;6.600;2022-12-18T09:33:19;-1.60;99.90
51837;DHT22;38941;53.254;6.600;2022-12-18T09:35:21;-2.60;99.90
51837;DHT22;38941;53.254;6.600;2022-12-18T09:37:22;-2.30;99.90
51837;DHT22;38941;53.254;6.600;2022-12-18T09:39:29;-2.00;99.90
51837;DHT22;38941;53.254;6.600;2022-12-18T09:41:52;-1.70;99.90
51837;DHT22;38941;53.254;6.600;2022-12-18T09:44:29;-1.80;99.90
51837;DHT22;38941;53.254;6.600;2022-12-18T09:46:42;-1.80;99.90
51837;DHT22;38941;53.254;6.600;2022-12-18T09:48:55;-2.00;99.90
51837;DHT22;38941;53.254;6.600;2022-12-18T09:51:20;-2.40;99.90
51837;DHT22;38941;53.254;6.600;2022-12-18T09:53:30;-2.80;99.90
51837;DHT22;38941;53.254;6.600;2022-12-18T09:55:39;-3.10;99.90
51837;DHT22;38941;53.254;6.600;2022-12-18T09:57:47;-3.20;99.90
51837;DHT22;38941;53.254;6.600;2022-12-18T09:59:59;-3.30;99.90
51837;DHT22;38941;53.254;6.600;2022-12-18T10:02:20;-3.30;99.90
51837;DHT22;38941;53.254;6.600;2022-12-18T10:04:30;-3.50;99.90
51837;DHT22;38941;53.254;6.600;2022-12-18T10:21:12;-2.20;99.90
51837;DHT22;38941;53.254;6.600;2022-12-18T10:23:41;-1.80;99.90
51837;DHT22;38941;53.254;6.600;2022-12-18T10:26:04;-2.40;99.90
51837;DHT22;38941;53.254;6.600;2022-12-18T10:28:15;-1.20;99.90
51837;DHT22;38941;53.254;6.600;2022-12-18T10:30:21;-1.10;99.90
51837;DHT22;38941;53.254;6.600;2022-12-18T10:32:29;-0.80;99.90
51837;DHT22;38941;53.254;6.600;2022-12-18T10:34:32;-0.40;99.90
51837;DHT22;38941;53.254;6.600;2022-12-18T10:36:34;-0.30;99.90
51837;DHT22;38941;53.254;6.600;2022-12-18T10:38:38;-0.40;99.90
51837;DHT22;38941;53.254;6.600;2022-12-18T10:40:51;-1.50;99.90
51837;DHT22;38941;53.254;6.600;2022-12-18T10:43:12;-0.60;99.90
51837;DHT22;38941;53.254;6.600;2022-12-18T10:45:17;-0.70;99.90
51837;DHT22;38941;53.254;6.600;2022-12-18T10:47:19;-1.60;99.90
51837;DHT22;38941;53.254;6.600;2022-12-18T10:49:32;-1.20;99.90
51837;DHT22;38941;53.254;6.600;2022-12-18T10:51:39;0.10;99.90
51837;DHT22;38941;53.254;6.600;2022-12-18T10:53:42;0.60;99.90
51837;DHT22;38941;53.254;6.600;2022-12-18T10:55:53;-0.50;99.90
51837;DHT22;38941;53.254;6.600;2022-12-18T11:02:40;-1.50;99.90
51837;DHT22;38941;53.254;6.600;2022-12-18T11:04:51;-0.80;99.90
51837;DHT22;38941;53.254;6.600;2022-12-18T11:07:05;-1.60;99.90
51837;DHT22;38941;53.254;6.600;2022-12-18T11:09:22;-1.60;99.90
51837;DHT22;38941;53.254;6.600;2022-12-18T11:11:31;-1.70;99.90
51837;DHT22;38941;53.254;6.600;2022-12-18T11:13:39;-1.70;99.90
51837;DHT22;38941;53.254;6.600;2022-12-18T11:15:43;-1.70;99.90
51837;DHT22;38941;53.254;6.600;2022-12-18T11:17:51;-1.80;99.90
51837;DHT22;38941;53.254;6.600;2022-12-18T11:20:06;-2.20;99.90
51837;DHT22;38941;53.254;6.600;2022-12-18T11:22:35;-1.80;99.90
51837;DHT22;38941;53.254;6.600;2022-12-18T11:25:39;-1.70;99.90
51837;DHT22;38941;53.254;6.600;2022-12-18T11:27:18;-1.80;99.90
51837;DHT22;38941;53.254;6.600;2022-12-18T11:29:31;-1.30;99.90
51837;DHT22;38941;53.254;6.600;2022-12-18T11:31:38;-1.90;99.90
51837;DHT22;38941;53.254;6.600;2022-12-18T11:33:44;-1.80;99.90
51837;DHT22;38941;53.254;6.600;2022-12-18T11:35:55;-0.90;99.90
51837;DHT22;38941;53.254;6.600;2022-12-18T11:38:02;-0.10;99.90
51837;DHT22;38941;53.254;6.600;2022-12-18T11:40:27;-1.80;99.90
51837;DHT22;38941;53.254;6.600;2022-12-18T11:42:39;-1.80;99.90
51837;DHT22;38941;53.254;6.600;2022-12-18T11:44:58;-1.70;99.90
51837;DHT22;38941;53.254;6.600;2022-12-18T11:47:07;-1.70;99.90
51837;DHT22;38941;53.254;6.600;2022-12-18T11:49:21;-2.20;99.90
51837;DHT22;38941;53.254;6.600;2022-12-18T11:51:49;-1.60;99.90
51837;DHT22;38941;53.254;6.600;2022-12-18T11:53:56;-1.60;99.90
51837;DHT22;38941;53.254;6.600;2022-12-18T11:56:04;-2.20;99.90
51837;DHT22;38941;53.254;6.600;2022-12-18T11:58:16;-1.50;99.90
51837;DHT22;38941;53.254;6.600;2022-12-18T12:00:23;-0.10;99.90
51837;DHT22;38941;53.254;6.600;2022-12-18T12:03:04;0.10;99.90
51837;DHT22;38941;53.254;6.600;2022-12-18T12:07:54;-2.50;99.90
51837;DHT22;38941;53.254;6.600;2022-12-18T12:10:36;-1.60;99.90
51837;DHT22;38941;53.254;6.600;2022-12-18T12:18:05;-1.50;99.90
51837;DHT22;38941;53.254;6.600;2022-12-18T12:32:25;-1.10;99.90
51837;DHT22;38941;53.254;6.600;2022-12-18T12:35:01;-1.10;99.90
51837;DHT22;38941;53.254;6.600;2022-12-18T12:39:31;-1.30;99.90
51837;DHT22;38941;53.254;6.600;2022-12-18T12:41:39;-1.20;99.90
51837;DHT22;38941;53.254;6.600;2022-12-18T12:44:04;-1.90;99.90
51837;DHT22;38941;53.254;6.600;2022-12-18T12:46:14;-1.30;99.90
51837;DHT22;38941;53.254;6.600;2022-12-18T12:48:35;-1.90;99.90
51837;DHT22;38941;53.254;6.600;2022-12-18T12:50:38;-1.10;99.90
51837;DHT22;38941;53.254;6.600;2022-12-18T12:52:55;0.40;99.90
51837;DHT22;38941;53.254;6.600;2022-12-18T12:55:06;-1.00;99.90
51837;DHT22;38941;53.254;6.600;2022-12-18T12:57:14;-1.10;99.90
51837;DHT22;38941;53.254;6.600;2022-12-18T13:02:04;-1.20;99.90
51837;DHT22;38941;53.254;6.600;2022-12-18T13:08:57;-1.50;99.90
51837;DHT22;38941;53.254;6.600;2022-12-18T13:11:00;0.20;99.90
51837;DHT22;38941;53.254;6.600;2022-12-18T13:13:20;-1.00;99.90
51837;DHT22;38941;53.254;6.600;2022-12-18T13:15:47;-0.40;99.90
51837;DHT22;38941;53.254;6.600;2022-12-18T13:20:15;-1.00;99.90
51837;DHT22;38941;53.254;6.600;2022-12-18T13:22:25;-1.00;99.90
51837;DHT22;38941;53.254;6.600;2022-12-18T13:24:31;-0.90;99.90
51837;DHT22;38941;53.254;6.600;2022-12-18T13:26:34;-0.80;99.90
51837;DHT22;38941;53.254;6.600;2022-12-18T13:30:57;0.60;99.90
51837;DHT22;38941;53.254;6.600;2022-12-18T13:39:46;-0.80;99.90
51837;DHT22;38941;53.254;6.600;2022-12-18T13:44:41;-0.80;99.90
51837;DHT22;38941;53.254;6.600;2022-12-18T13:46:47;0.30;99.90
51837;DHT22;38941;53.254;6.600;2022-12-18T13:49:17;-0.20;99.90
51837;DHT22;38941;53.254;6.600;2022-12-18T13:51:24;-0.40;99.90
51837;DHT22;38941;53.254;6.600;2022-12-18T13:53:38;-1.90;99.90
51837;DHT22;38941;53.254;6.600;2022-12-18T13:55:46;-0.90;99.90
51837;DHT22;38941;53.254;6.600;2022-12-18T13:57:49;-1.90;99.90
51837;DHT22;38941;53.254;6.600;2022-12-18T13:59:56;0.00;99.90
51837;DHT22;38941;53.254;6.600;2022-12-18T14:02:23;-1.40;99.90
51837;DHT22;38941;53.254;6.600;2022-12-18T14:04:28;-0.90;99.90
51837;DHT22;38941;53.254;6.600;2022-12-18T14:06:32;-0.70;99.90
51837;DHT22;38941;53.254;6.600;2022-12-18T14:08:41;0.70;99.90
51837;DHT22;38941;53.254;6.600;2022-12-18T14:10:46;-2.00;99.90
51837;DHT22;38941;53.254;6.600;2022-12-18T14:12:49;-0.80;99.90
51837;DHT22;38941;53.254;6.600;2022-12-18T14:15:04;-0.80;99.90
51837;DHT22;38941;53.254;6.600;2022-12-18T14:17:10;-0.80;99.90
51837;DHT22;38941;53.254;6.600;2022-12-18T14:19:17;-0.80;99.90
51837;DHT22;38941;53.254;6.600;2022-12-18T14:21:32;-0.70;99.90
51837;DHT22;38941;53.254;6.600;2022-12-18T14:23:42;-1.10;99.90
51837;DHT22;38941;53.254;6.600;2022-12-18T14:25:46;-0.70;99.90
51837;DHT22;38941;53.254;6.600;2022-12-18T14:30:29;-0.70;99.90
51837;DHT22;38941;53.254;6.600;2022-12-18T14:32:32;-0.70;99.90
51837;DHT22;38941;53.254;6.600;2022-12-18T14:34:33;-0.80;99.90
51837;DHT22;38941;53.254;6.600;2022-12-18T14:36:34;1.00;99.90
51837;DHT22;38941;53.254;6.600;2022-12-18T14:38:41;0.50;99.90
51837;DHT22;38941;53.254;6.600;2022-12-18T14:40:44;-0.90;99.90
51837;DHT22;38941;53.254;6.600;2022-12-18T14:42:47;-1.00;99.90
51837;DHT22;38941;53.254;6.600;2022-12-18T14:44:48;-1.00;99.90
51837;DHT22;38941;53.254;6.600;2022-12-18T14:46:50;0.60;99.90
51837;DHT22;38941;53.254;6.600;2022-12-18T14:48:55;-0.70;99.90
51837;DHT22;38941;53.254;6.600;2022-12-18T14:51:06;-1.10;99.90
51837;DHT22;38941;53.254;6.600;2022-12-18T14:53:21;-1.10;99.90
51837;DHT22;38941;53.254;6.600;2022-12-18T14:55:24;-1.20;99.90
51837;DHT22;38941;53.254;6.600;2022-12-18T14:57:35;-1.00;99.90
51837;DHT22;38941;53.254;6.600;2022-12-18T14:59:39;-0.80;99.90
51837;DHT22;38941;53.254;6.600;2022-12-18T15:02:26;-1.10;99.90
51837;DHT22;38941;53.254;6.600;2022-12-18T15:04:36;-1.10;99.90
51837;DHT22;38941;53.254;6.600;2022-12-18T15:06:41;-1.20;99.90
51837;DHT22;38941;53.254;6.600;2022-12-18T15:08:44;-1.20;99.90
51837;DHT22;38941;53.254;6.600;2022-12-18T15:10:49;0.20;99.90